createdAt,value
2023-04-17T00:02:15.896Z,98582.72
2023-04-17T00:04:43.861Z,98582.41
2023-04-17T00:07:12.635Z,98574.31
2023-04-17T00:09:40.226Z,98575.41
2023-04-17T00:12:07.844Z,98572.09
2023-04-17T00:14:35.421Z,98575.00
2023-04-17T00:17:02.947Z,98570.09
2023-04-17T00:19:30.680Z,98574.47
2023-04-17T00:21:58.301Z,98572.75
2023-04-17T00:24:25.813Z,98569.84
2023-04-17T00:26:53.519Z,98569.19
2023-04-17T00:29:21.519Z,98568.31
2023-04-17T00:31:49.284Z,98561.13
2023-04-17T00:34:16.850Z,98563.06
2023-04-17T00:36:44.447Z,98555.84
2023-04-17T00:39:12.524Z,98558.94
2023-04-17T00:41:40.500Z,98557.16
2023-04-17T00:44:08.223Z,98565.03
2023-04-17T00:46:35.870Z,98567.06
2023-04-17T00:49:04.166Z,98576.22
2023-04-17T00:51:32.529Z,98566.53
2023-04-17T00:54:00.409Z,98573.47
2023-04-17T00:56:29.138Z,98574.28
2023-04-17T00:58:58.367Z,98563.66
2023-04-17T01:01:26.022Z,98562.84
2023-04-17T01:03:53.944Z,98562.94
2023-04-17T01:06:21.585Z,98569.03
2023-04-17T01:08:49.237Z,98557.38
2023-04-17T01:11:16.830Z,98560.13
2023-04-17T01:13:46.375Z,98566.69
2023-04-17T01:16:15.237Z,98559.66
2023-04-17T01:18:42.913Z,98555.28
2023-04-17T01:21:10.997Z,98558.53
2023-04-17T01:23:48.625Z,98569.34
2023-04-17T01:26:18.365Z,98553.22
2023-04-17T01:28:57.754Z,98561.47
2023-04-17T01:31:27.096Z,98564.59
2023-04-17T01:33:55.466Z,98565.41
2023-04-17T01:36:23.204Z,98553.59
2023-04-17T01:38:51.740Z,98554.13
2023-04-17T01:41:19.676Z,98555.41
2023-04-17T01:43:47.573Z,98556.31
2023-04-17T01:46:15.290Z,98554.50
2023-04-17T01:48:43.282Z,98551.91
2023-04-17T01:51:10.887Z,98555.78
2023-04-17T01:53:39.416Z,98552.81
2023-04-17T01:56:07.498Z,98550.53
2023-04-17T01:58:35.933Z,98560.81
2023-04-17T02:01:04.046Z,98558.97
2023-04-17T02:03:32.080Z,98560.50
2023-04-17T02:05:59.694Z,98558.94
2023-04-17T02:08:27.294Z,98551.97
2023-04-17T02:10:54.900Z,98552.19
2023-04-17T02:13:22.486Z,98551.06
2023-04-17T02:15:50.124Z,98555.66
2023-04-17T02:18:18.645Z,98558.78
2023-04-17T02:20:46.297Z,98555.44
2023-04-17T02:23:14.615Z,98556.28
2023-04-17T02:25:42.102Z,98553.22
2023-04-17T02:28:09.673Z,98545.56
2023-04-17T02:30:37.639Z,98553.69
2023-04-17T02:33:05.450Z,98550.41
2023-04-17T02:35:34.193Z,98546.19
2023-04-17T02:38:02.355Z,98553.81
2023-04-17T02:40:29.908Z,98546.03
2023-04-17T02:43:02.151Z,98542.66
2023-04-17T02:45:31.169Z,98545.47
2023-04-17T02:47:58.912Z,98544.34
2023-04-17T02:50:26.753Z,98552.13
2023-04-17T02:53:11.768Z,98536.44
2023-04-17T02:55:39.276Z,98532.34
2023-04-17T02:58:06.949Z,98538.84
2023-04-17T03:00:34.718Z,98545.63
2023-04-17T03:03:03.424Z,98539.16
2023-04-17T03:05:31.343Z,98549.22
2023-04-17T03:08:01.064Z,98541.00
2023-04-17T03:10:34.489Z,98544.69
2023-04-17T03:13:03.700Z,98547.94
2023-04-17T03:15:33.466Z,98556.91
2023-04-17T03:18:01.343Z,98557.91
2023-04-17T03:20:29.046Z,98556.19
2023-04-17T03:22:56.709Z,98556.59
2023-04-17T03:25:24.426Z,98554.84
2023-04-17T03:27:56.534Z,98548.84
2023-04-17T03:30:31.857Z,98560.69
2023-04-17T03:33:03.042Z,98557.81
2023-04-17T03:35:32.024Z,98565.03
2023-04-17T03:37:59.660Z,98572.03
2023-04-17T03:40:27.316Z,98565.91
2023-04-17T03:42:54.867Z,98560.44
2023-04-17T03:45:22.440Z,98561.59
2023-04-17T03:47:50.425Z,98560.59
2023-04-17T03:50:18.701Z,98565.50
2023-04-17T03:52:51.921Z,98564.69
2023-04-17T03:55:19.664Z,98564.47
2023-04-17T03:57:51.667Z,98565.91
2023-04-17T04:00:21.888Z,98567.66
2023-04-17T04:02:53.922Z,98564.22
2023-04-17T04:05:26.688Z,98564.03
2023-04-17T04:07:55.137Z,98562.00
2023-04-17T04:10:29.986Z,98565.81
2023-04-17T04:12:58.287Z,98570.44
2023-04-17T04:15:27.130Z,98573.78
2023-04-17T04:17:59.473Z,98570.06
2023-04-17T04:20:27.113Z,98570.16
2023-04-17T04:23:04.607Z,98564.56
2023-04-17T04:25:34.172Z,98578.06
2023-04-17T04:28:17.919Z,98572.88
2023-04-17T04:30:50.543Z,98568.59
2023-04-17T04:33:21.235Z,98576.22
2023-04-17T04:35:49.495Z,98580.22
2023-04-17T04:38:17.798Z,98581.34
2023-04-17T04:40:52.490Z,98577.72
2023-04-17T04:43:22.418Z,98586.63
2023-04-17T04:45:53.822Z,98588.38
2023-04-17T04:48:21.969Z,98600.41
2023-04-17T04:50:49.666Z,98600.53
2023-04-17T04:53:17.648Z,98600.91
2023-04-17T04:55:57.479Z,98608.53
2023-04-17T04:58:25.230Z,98608.03
2023-04-17T05:00:55.777Z,98604.75
2023-04-17T05:03:37.482Z,98616.66
2023-04-17T05:06:06.805Z,98615.53
2023-04-17T05:08:45.294Z,98618.31
2023-04-17T05:11:15.706Z,98620.59
2023-04-17T05:13:43.990Z,98617.38
2023-04-17T05:16:19.880Z,98625.66
2023-04-17T05:18:48.051Z,98621.06
2023-04-17T05:21:19.129Z,98619.72
2023-04-17T05:23:50.046Z,98619.03
2023-04-17T05:26:27.681Z,98625.91
2023-04-17T05:28:55.426Z,98620.97
2023-04-17T05:31:27.292Z,98614.88
2023-04-17T05:33:56.305Z,98618.34
2023-04-17T05:36:23.905Z,98617.97
2023-04-17T05:38:56.922Z,98627.91
2023-04-17T05:41:24.604Z,98621.22
2023-04-17T05:43:52.171Z,98621.25
2023-04-17T05:46:19.775Z,98622.91
2023-04-17T05:48:47.443Z,98628.31
2023-04-17T05:51:15.001Z,98623.28
2023-04-17T05:53:44.852Z,98624.19
2023-04-17T05:56:12.435Z,98636.25
2023-04-17T05:58:40.001Z,98639.00
2023-04-17T06:01:08.594Z,98641.47
2023-04-17T06:03:36.648Z,98643.66
2023-04-17T06:06:12.022Z,98635.56
2023-04-17T06:08:39.831Z,98635.44
2023-04-17T06:11:10.418Z,98631.94
2023-04-17T06:13:38.258Z,98642.78
2023-04-17T06:16:06.621Z,98643.53
2023-04-17T06:18:34.446Z,98644.50
2023-04-17T06:21:02.048Z,98650.53
2023-04-17T06:23:29.698Z,98645.72
2023-04-17T06:25:57.648Z,98641.31
2023-04-17T06:28:25.289Z,98654.75
2023-04-17T06:30:54.948Z,98653.09
2023-04-17T06:33:24.518Z,98658.38
2023-04-17T06:35:54.021Z,98657.94
2023-04-17T06:38:29.317Z,98650.53
2023-04-17T06:40:57.309Z,98663.56
2023-04-17T06:43:24.993Z,98662.38
2023-04-17T06:45:54.157Z,98666.09
2023-04-17T06:48:23.314Z,98663.72
2023-04-17T06:50:51.047Z,98664.03
2023-04-17T06:53:18.700Z,98664.56
2023-04-17T06:55:46.390Z,98667.22
2023-04-17T06:58:14.359Z,98668.75
2023-04-17T07:00:41.958Z,98676.00
2023-04-17T07:03:09.750Z,98666.69
2023-04-17T07:05:37.544Z,98668.47
2023-04-17T07:08:05.422Z,98669.53
2023-04-17T07:10:32.929Z,98680.41
2023-04-17T07:13:00.596Z,98669.75
2023-04-17T07:15:31.563Z,98677.13
2023-04-17T07:17:59.153Z,98672.47
2023-04-17T07:20:26.848Z,98679.38
2023-04-17T07:22:55.493Z,98681.84
2023-04-17T07:25:23.480Z,98680.13
2023-04-17T07:27:51.259Z,98675.63
2023-04-17T07:30:18.771Z,98680.19
2023-04-17T07:32:46.696Z,98682.25
2023-04-17T07:35:14.353Z,98682.22
2023-04-17T07:37:41.877Z,98683.53
2023-04-17T07:40:10.817Z,98688.81
2023-04-17T07:42:38.589Z,98681.09
2023-04-17T07:45:06.787Z,98691.22
2023-04-17T07:47:34.547Z,98679.69
2023-04-17T07:50:02.957Z,98691.56
2023-04-17T07:52:31.132Z,98691.84
2023-04-17T07:54:58.842Z,98699.41
2023-04-17T07:57:30.077Z,98691.63
2023-04-17T07:59:57.680Z,98694.78
2023-04-17T08:02:25.568Z,98696.56
2023-04-17T08:04:54.307Z,98697.81
2023-04-17T08:07:22.306Z,98695.97
2023-04-17T08:09:51.087Z,98693.78
2023-04-17T08:12:19.842Z,98696.03
2023-04-17T08:14:47.383Z,98700.47
2023-04-17T08:17:18.174Z,98691.50
2023-04-17T08:19:45.911Z,98695.94
2023-04-17T08:22:14.329Z,98701.28
2023-04-17T08:24:43.237Z,98699.41
2023-04-17T08:27:10.929Z,98697.84
2023-04-17T08:29:39.779Z,98694.47
2023-04-17T08:32:14.739Z,98696.06
2023-04-17T08:34:44.483Z,98690.13
2023-04-17T08:37:12.122Z,98700.44
2023-04-17T08:39:39.715Z,98697.19
2023-04-17T08:42:14.053Z,98696.22
2023-04-17T08:44:45.655Z,98691.72
2023-04-17T08:47:13.701Z,98693.06
2023-04-17T08:49:43.986Z,98707.16
2023-04-17T08:52:12.086Z,98691.72
2023-04-17T08:54:39.726Z,98697.81
2023-04-17T08:57:07.683Z,98701.53
2023-04-17T08:59:35.357Z,98699.28
2023-04-17T09:02:05.610Z,98691.50
2023-04-17T09:04:44.630Z,98693.41
2023-04-17T09:07:13.902Z,98694.13
2023-04-17T09:09:51.614Z,98703.00
2023-04-17T09:12:21.314Z,98695.78
2023-04-17T09:14:49.222Z,98700.97
2023-04-17T09:17:18.440Z,98695.50
2023-04-17T09:20:11.933Z,98696.28
2023-04-17T09:22:41.113Z,98695.94
2023-04-17T09:25:21.423Z,98696.75
2023-04-17T09:27:49.021Z,98689.53
2023-04-17T09:30:16.727Z,98694.22
2023-04-17T09:32:44.630Z,98697.13
2023-04-17T09:35:25.567Z,98696.56
2023-04-17T09:37:54.904Z,98692.47
2023-04-17T09:40:25.124Z,98690.34
2023-04-17T09:43:04.070Z,98682.72
2023-04-17T09:45:35.919Z,98685.06
2023-04-17T09:48:13.472Z,98686.72
2023-04-17T09:50:41.123Z,98687.47
2023-04-17T09:53:09.517Z,98683.66
2023-04-17T09:55:38.889Z,98688.50
2023-04-17T09:58:08.158Z,98684.19
2023-04-17T10:00:37.824Z,98688.09
2023-04-17T10:03:07.609Z,98681.38
2023-04-17T10:05:35.876Z,98675.41
2023-04-17T10:08:04.353Z,98677.44
2023-04-17T10:10:34.286Z,98668.06
2023-04-17T10:13:12.595Z,98663.88
2023-04-17T10:15:40.273Z,98671.56
2023-04-17T10:18:24.829Z,98663.28
2023-04-17T10:20:53.878Z,98656.38
2023-04-17T10:23:32.240Z,98660.81
2023-04-17T10:26:24.921Z,98660.28
2023-04-17T10:28:54.631Z,98659.81
2023-04-17T10:32:03.311Z,98654.34
2023-04-17T10:34:37.852Z,98656.19
2023-04-17T10:37:05.410Z,98652.50
2023-04-17T10:40:12.473Z,98654.78
2023-04-17T10:42:41.094Z,98654.56
2023-04-17T10:45:19.210Z,98655.28
2023-04-17T10:47:58.525Z,98642.03
2023-04-17T10:50:29.275Z,98643.53
2023-04-17T10:52:56.819Z,98648.13
2023-04-17T10:55:26.816Z,98648.94
2023-04-17T10:58:12.717Z,98635.59
2023-04-17T11:00:51.209Z,98648.03
2023-04-17T11:03:23.217Z,98646.78
2023-04-17T11:05:52.014Z,98645.88
2023-04-17T11:08:20.269Z,98648.69
2023-04-17T11:10:53.400Z,98648.34
2023-04-17T11:13:20.995Z,98638.97
2023-04-17T11:15:50.859Z,98645.75
2023-04-17T11:18:21.694Z,98637.69
2023-04-17T11:20:50.376Z,98637.88
2023-04-17T11:23:19.089Z,98642.84
2023-04-17T11:25:47.373Z,98633.78
2023-04-17T11:28:15.588Z,98646.59
2023-04-17T11:30:45.028Z,98649.16
2023-04-17T11:33:12.908Z,98630.84
2023-04-17T11:35:43.104Z,98641.53
2023-04-17T11:38:17.896Z,98635.63
2023-04-17T11:40:58.912Z,98636.88
2023-04-17T11:43:28.337Z,98642.28
2023-04-17T11:45:58.281Z,98643.75
2023-04-17T11:48:30.307Z,98625.56
2023-04-17T11:51:04.045Z,98643.38
2023-04-17T11:53:34.360Z,98646.22
2023-04-17T11:56:19.166Z,98639.16
2023-04-17T11:58:52.006Z,98636.19
2023-04-17T12:01:24.583Z,98639.72
2023-04-17T12:03:58.193Z,98645.53
2023-04-17T12:06:39.312Z,98639.94
2023-04-17T12:09:21.760Z,98642.47
2023-04-17T12:11:49.586Z,98636.53
2023-04-17T12:14:18.250Z,98647.09
2023-04-17T12:16:50.056Z,98642.41
2023-04-17T12:19:22.124Z,98640.94
2023-04-17T12:21:52.375Z,98642.53
2023-04-17T12:24:21.894Z,98633.72
2023-04-17T12:26:50.647Z,98635.84
2023-04-17T12:29:22.010Z,98640.66
2023-04-17T12:31:56.965Z,98635.81
2023-04-17T12:34:27.813Z,98632.09
2023-04-17T12:36:55.904Z,98626.66
2023-04-17T12:39:23.497Z,98639.84
2023-04-17T12:41:51.236Z,98632.16
2023-04-17T12:44:18.791Z,98628.00
2023-04-17T12:46:46.826Z,98622.25
2023-04-17T12:49:17.270Z,98619.03
2023-04-17T12:51:51.349Z,98607.81
2023-04-17T12:54:19.191Z,98618.09
2023-04-17T12:56:46.871Z,98611.47
2023-04-17T12:59:14.448Z,98605.75
2023-04-17T13:01:42.677Z,98608.50
2023-04-17T13:04:10.525Z,98601.94
2023-04-17T13:06:38.279Z,98598.22
2023-04-17T13:09:06.595Z,98593.28
2023-04-17T13:11:36.476Z,98596.56
2023-04-17T13:14:07.941Z,98594.41
2023-04-17T13:16:40.713Z,98589.34
2023-04-17T13:19:08.353Z,98579.22
2023-04-17T13:21:39.645Z,98586.03
2023-04-17T13:24:07.217Z,98591.97
2023-04-17T13:26:34.777Z,98578.44
2023-04-17T13:29:03.164Z,98587.28
2023-04-17T13:31:30.749Z,98574.69
2023-04-17T13:33:58.411Z,98576.66
2023-04-17T13:36:26.166Z,98570.03
2023-04-17T13:38:53.711Z,98568.56
2023-04-17T13:41:21.376Z,98563.16
2023-04-17T13:43:49.069Z,98573.56
2023-04-17T13:46:17.037Z,98577.81
2023-04-17T13:48:45.718Z,98584.28
2023-04-17T13:51:15.045Z,98598.69
2023-04-17T13:53:42.831Z,98608.25
2023-04-17T13:56:10.450Z,98591.31
2023-04-17T13:58:38.147Z,98581.97
2023-04-17T14:01:06.694Z,98594.44
2023-04-17T14:03:36.254Z,98594.16
2023-04-17T14:06:05.335Z,98601.28
2023-04-17T14:08:32.925Z,98598.66
2023-04-17T14:11:00.482Z,98595.31
2023-04-17T14:13:28.013Z,98596.09
2023-04-17T14:15:55.923Z,98590.16
2023-04-17T14:18:24.816Z,98593.94
2023-04-17T14:20:55.476Z,98594.28
2023-04-17T14:23:23.175Z,98588.53
2023-04-17T14:25:50.758Z,98590.13
2023-04-17T14:28:19.015Z,98584.22
2023-04-17T14:30:47.739Z,98584.97
2023-04-17T14:33:15.341Z,98583.75
2023-04-17T14:35:44.077Z,98591.41
2023-04-17T14:38:12.009Z,98575.06
2023-04-17T14:40:39.695Z,98581.66
2023-04-17T14:43:07.328Z,98579.81
2023-04-17T14:45:36.807Z,98583.13
2023-04-17T14:48:05.019Z,98579.94
2023-04-17T14:50:32.723Z,98574.63
2023-04-17T14:53:00.642Z,98576.22
2023-04-17T14:55:29.040Z,98581.19
2023-04-17T14:57:56.656Z,98577.69
2023-04-17T15:00:24.333Z,98573.59
2023-04-17T15:02:52.062Z,98582.09
2023-04-17T15:05:21.128Z,98580.75
2023-04-17T15:07:50.749Z,98581.91
2023-04-17T15:10:19.726Z,98589.41
2023-04-17T15:12:48.275Z,98584.00
2023-04-17T15:15:15.950Z,98585.13
2023-04-17T15:17:43.657Z,98590.97
2023-04-17T15:20:14.708Z,98591.19
2023-04-17T15:22:42.262Z,98592.47
2023-04-17T15:25:12.219Z,98586.97
2023-04-17T15:27:39.808Z,98588.28
2023-04-17T15:30:08.960Z,98587.22
2023-04-17T15:32:39.879Z,98587.19
2023-04-17T15:35:08.131Z,98586.50
2023-04-17T15:37:39.175Z,98589.69
2023-04-17T15:40:11.803Z,98592.03
2023-04-17T15:42:41.818Z,98587.16
2023-04-17T15:45:10.108Z,98590.63
2023-04-17T15:47:46.187Z,98583.16
2023-04-17T15:50:14.844Z,98589.16
2023-04-17T15:52:42.355Z,98586.34
2023-04-17T15:55:10.294Z,98591.28
2023-04-17T15:57:40.096Z,98576.47
2023-04-17T16:00:12.634Z,98580.97
2023-04-17T16:02:41.029Z,98586.13
2023-04-17T16:05:10.130Z,98582.69
2023-04-17T16:07:37.757Z,98586.56
2023-04-17T16:10:13.550Z,98576.03
2023-04-17T16:12:47.380Z,98580.09
2023-04-17T16:15:17.353Z,98578.81
2023-04-17T16:17:51.192Z,98585.59
2023-04-17T16:20:19.116Z,98584.44
2023-04-17T16:22:46.640Z,98582.41
2023-04-17T16:25:15.284Z,98581.41
2023-04-17T16:27:43.888Z,98586.75
2023-04-17T16:30:13.661Z,98589.28
2023-04-17T16:32:41.340Z,98588.34
2023-04-17T16:35:09.172Z,98583.34
2023-04-17T16:37:40.333Z,98582.28
2023-04-17T16:40:11.785Z,98587.75
2023-04-17T16:42:39.327Z,98581.94
2023-04-17T16:45:07.344Z,98589.69
2023-04-17T16:47:36.150Z,98580.03
2023-04-17T16:50:04.332Z,98589.59
2023-04-17T16:52:31.958Z,98584.13
2023-04-17T16:54:59.766Z,98577.06
2023-04-17T16:57:27.277Z,98589.47
2023-04-17T16:59:55.214Z,98589.75
2023-04-17T17:02:23.306Z,98592.16
2023-04-17T17:04:52.149Z,98585.06
2023-04-17T17:07:19.717Z,98589.75
2023-04-17T17:09:48.869Z,98593.13
2023-04-17T17:12:16.449Z,98594.19
2023-04-17T17:14:44.041Z,98594.19
2023-04-17T17:17:11.672Z,98595.09
2023-04-17T17:19:39.285Z,98594.69
2023-04-17T17:22:07.644Z,98604.31
2023-04-17T17:24:36.221Z,98608.00
2023-04-17T17:27:03.944Z,98605.84
2023-04-17T17:29:31.774Z,98599.09
2023-04-17T17:31:59.660Z,98600.19
2023-04-17T17:34:27.652Z,98597.47
2023-04-17T17:36:55.216Z,98594.00
2023-04-17T17:39:23.069Z,98594.63
2023-04-17T17:41:50.850Z,98593.03
2023-04-17T17:44:20.806Z,98600.16
2023-04-17T17:46:48.360Z,98596.59
2023-04-17T17:49:17.363Z,98599.72
2023-04-17T17:51:45.012Z,98593.16
2023-04-17T17:54:12.988Z,98594.88
2023-04-17T17:56:40.873Z,98596.97
2023-04-17T17:59:08.382Z,98604.28
2023-04-17T18:01:36.044Z,98604.19
2023-04-17T18:04:03.929Z,98608.69
2023-04-17T18:06:31.750Z,98606.78
2023-04-17T18:09:00.477Z,98609.22
2023-04-17T18:11:28.684Z,98615.47
2023-04-17T18:13:56.304Z,98614.97
2023-04-17T18:16:24.919Z,98619.59
2023-04-17T18:18:53.208Z,98621.50
2023-04-17T18:21:22.360Z,98618.88
2023-04-17T18:23:52.592Z,98621.97
2023-04-17T18:26:20.185Z,98619.81
2023-04-17T18:28:48.493Z,98622.13
2023-04-17T18:31:16.832Z,98630.19
2023-04-17T18:33:47.556Z,98623.91
2023-04-17T18:36:15.305Z,98630.09
2023-04-17T18:38:43.075Z,98634.34
2023-04-17T18:41:11.936Z,98635.44
2023-04-17T18:43:40.525Z,98628.72
2023-04-17T18:46:08.623Z,98632.84
2023-04-17T18:48:39.452Z,98635.88
2023-04-17T18:51:09.594Z,98628.97
2023-04-17T18:53:37.802Z,98630.72
2023-04-17T18:56:06.630Z,98636.50
2023-04-17T18:58:35.860Z,98631.78
2023-04-17T19:01:06.043Z,98634.91
2023-04-17T19:03:35.001Z,98633.22
2023-04-17T19:06:04.519Z,98631.03
2023-04-17T19:08:32.480Z,98632.38
2023-04-17T19:11:06.382Z,98633.25
2023-04-17T19:13:34.508Z,98630.09
2023-04-17T19:16:03.013Z,98633.03
2023-04-17T19:18:31.694Z,98634.75
2023-04-17T19:20:59.521Z,98646.59
2023-04-17T19:23:27.411Z,98647.53
2023-04-17T19:25:56.431Z,98646.59
2023-04-17T19:28:27.216Z,98640.13
2023-04-17T19:30:57.757Z,98640.06
2023-04-17T19:33:25.669Z,98643.63
2023-04-17T19:35:55.829Z,98639.13
2023-04-17T19:38:23.695Z,98642.78
2023-04-17T19:41:09.766Z,98642.09
2023-04-17T19:43:37.812Z,98643.19
2023-04-17T19:46:05.815Z,98645.03
2023-04-17T19:48:33.656Z,98633.28
2023-04-17T19:51:05.399Z,98630.81
2023-04-17T19:53:35.846Z,98626.50
2023-04-17T19:56:06.947Z,98627.19
2023-04-17T19:58:37.296Z,98629.44
2023-04-17T20:01:07.345Z,98626.53
2023-04-17T20:03:35.766Z,98627.91
2023-04-17T20:06:05.087Z,98615.97
2023-04-17T20:08:32.663Z,98622.25
2023-04-17T20:11:01.007Z,98618.03
2023-04-17T20:13:28.646Z,98616.88
2023-04-17T20:15:57.257Z,98622.28
2023-04-17T20:18:25.660Z,98619.09
2023-04-17T20:21:01.203Z,98620.69
2023-04-17T20:23:29.415Z,98625.38
2023-04-17T20:26:00.746Z,98627.31
2023-04-17T20:28:31.485Z,98634.44
2023-04-17T20:31:00.020Z,98638.63
2023-04-17T20:33:28.652Z,98638.09
2023-04-17T20:35:56.453Z,98633.66
2023-04-17T20:38:24.352Z,98631.19
2023-04-17T20:40:57.284Z,98632.66
2023-04-17T20:43:25.995Z,98640.88
2023-04-17T20:45:53.588Z,98640.28
2023-04-17T20:48:21.696Z,98643.53
2023-04-17T20:50:49.725Z,98640.28
2023-04-17T20:53:18.038Z,98650.63
2023-04-17T20:55:47.112Z,98647.16
2023-04-17T20:58:14.856Z,98654.03
2023-04-17T21:00:54.473Z,98651.53
2023-04-17T21:03:31.131Z,98650.00
2023-04-17T21:05:59.343Z,98661.66
2023-04-17T21:08:27.541Z,98661.97
2023-04-17T21:10:55.239Z,98656.25
2023-04-17T21:13:23.603Z,98652.91
2023-04-17T21:15:51.199Z,98650.03
2023-04-17T21:18:18.704Z,98655.25
2023-04-17T21:20:55.793Z,98652.34
2023-04-17T21:23:23.344Z,98650.19
2023-04-17T21:25:52.022Z,98658.03
2023-04-17T21:28:20.076Z,98657.59
2023-04-17T21:30:47.865Z,98648.38
2023-04-17T21:33:15.594Z,98649.38
2023-04-17T21:35:43.106Z,98652.19
2023-04-17T21:38:10.693Z,98652.13
2023-04-17T21:40:48.122Z,98647.19
2023-04-17T21:43:18.575Z,98647.19
2023-04-17T21:45:46.559Z,98649.75
2023-04-17T21:48:14.762Z,98647.81
2023-04-17T21:50:43.291Z,98646.81
2023-04-17T21:53:10.906Z,98652.66
2023-04-17T21:55:38.707Z,98657.06
2023-04-17T21:58:06.887Z,98648.16
2023-04-17T22:00:34.478Z,98655.75
2023-04-17T22:03:02.680Z,98652.13
2023-04-17T22:05:30.435Z,98650.63
2023-04-17T22:07:58.157Z,98658.53
2023-04-17T22:10:26.903Z,98654.50
2023-04-17T22:12:54.576Z,98656.94
2023-04-17T22:15:22.074Z,98656.00
2023-04-17T22:17:49.848Z,98663.97
2023-04-17T22:20:17.681Z,98661.88
2023-04-17T22:22:46.672Z,98660.31
2023-04-17T22:25:14.346Z,98660.25
2023-04-17T22:27:42.221Z,98670.97
2023-04-17T22:30:10.087Z,98661.25
2023-04-17T22:32:37.882Z,98672.84
2023-04-17T22:35:06.860Z,98673.41
2023-04-17T22:37:34.419Z,98677.22
2023-04-17T22:40:02.244Z,98672.41
2023-04-17T22:42:30.116Z,98678.44
2023-04-17T22:44:57.648Z,98674.50
2023-04-17T22:47:25.224Z,98680.75
2023-04-17T22:49:53.570Z,98675.50
2023-04-17T22:52:21.740Z,98674.00
2023-04-17T22:54:49.292Z,98680.31
2023-04-17T22:57:16.869Z,98674.81
2023-04-17T22:59:44.567Z,98673.59
2023-04-17T23:02:12.543Z,98680.59
2023-04-17T23:04:40.979Z,98676.22
2023-04-17T23:07:08.575Z,98675.94
2023-04-17T23:09:36.127Z,98674.72
2023-04-17T23:12:03.950Z,98678.44
2023-04-17T23:14:31.576Z,98670.88
2023-04-17T23:16:59.113Z,98671.53
2023-04-17T23:19:26.803Z,98672.41
2023-04-17T23:21:54.471Z,98667.66
2023-04-17T23:24:22.129Z,98679.50
2023-04-17T23:26:49.768Z,98668.38
2023-04-17T23:29:17.745Z,98661.84
2023-04-17T23:31:45.644Z,98666.81
2023-04-17T23:34:13.565Z,98668.75
2023-04-17T23:36:41.351Z,98671.16
2023-04-17T23:39:09.276Z,98674.28
2023-04-17T23:41:36.881Z,98669.03
2023-04-17T23:44:04.587Z,98666.03
2023-04-17T23:46:32.105Z,98669.44
2023-04-17T23:48:59.748Z,98660.94
2023-04-17T23:51:27.731Z,98673.69
2023-04-17T23:53:57.149Z,98665.00
2023-04-17T23:56:24.688Z,98668.06
2023-04-17T23:58:52.225Z,98662.59
